Time;durP1;ratioP1;P1;durP2;ratioP2;P2;SDS_P1;SDS_P2;PMS_P1;PMS_P2;Temp;Humidity;BMP_temperature;BMP_pressure;BME280_temperature;BME280_humidity;BME280_pressure;Samples;Min_cycle;Max_cycle;Signal;HPM_P1;HPM_P2
2023/01/08 00:01:22;;;;;;;3.30;2.03;;;;;10.00;99791.00;;;;9854931;30;20191;-79
2023/01/08 00:06:24;;;;;;;5.93;1.80;;;;;10.10;99803.00;;;;9870725;30;20196;-79
2023/01/08 00:11:26;;;;;;;4.33;2.30;;;;;10.10;99791.00;;;;9861684;30;20231;-79
2023/01/08 00:16:28;;;;;;;7.20;2.20;;;;;10.20;99798.00;;;;9877283;30;20219;-78
2023/01/08 00:21:30;;;;;;;5.27;2.00;;;;;10.20;99813.00;;;;9914259;29;20738;-78
2023/01/08 00:26:32;;;;;;;0.83;0.40;;;;;10.10;99826.00;;;;9915392;29;20270;-79
2023/01/08 00:31:34;;;;;;;1.07;0.40;;;;;9.30;99826.00;;;;9924249;29;20207;-77
2023/01/08 00:36:36;;;;;;;1.40;0.60;;;;;8.40;99820.00;;;;9877597;30;20212;-79
2023/01/08 00:41:38;;;;;;;2.60;0.60;;;;;8.00;99812.00;;;;9877742;30;20200;-80
2023/01/08 00:46:40;;;;;;;2.10;0.80;;;;;7.80;99812.00;;;;9877184;30;20682;-80
2023/01/08 00:51:43;;;;;;;1.17;0.57;;;;;7.70;99801.00;;;;9863498;30;20216;-80
2023/01/08 00:56:45;;;;;;;0.40;0.40;;;;;7.70;99790.00;;;;9894143;30;20276;-80
2023/01/08 01:01:47;;;;;;;0.80;0.60;;;;;7.70;99773.00;;;;9864022;30;20207;-81
2023/01/08 01:06:49;;;;;;;2.07;0.60;;;;;7.70;99775.00;;;;9878092;30;20290;-80
2023/01/08 01:11:51;;;;;;;3.23;0.70;;;;;7.70;99787.00;;;;9863318;30;20231;-81
2023/01/08 01:16:52;;;;;;;2.87;0.57;;;;;7.70;99765.00;;;;9872224;30;20222;-81
2023/01/08 01:21:55;;;;;;;2.57;0.43;;;;;7.80;99768.00;;;;9826373;30;20232;-80
2023/01/08 01:26:56;;;;;;;2.73;0.60;;;;;7.80;99750.00;;;;9859928;30;20739;-81
2023/01/08 01:31:59;;;;;;;3.70;0.73;;;;;7.80;99755.00;;;;9895008;30;20256;-81
2023/01/08 01:37:00;;;;;;;3.37;0.93;;;;;7.70;99728.00;;;;9878624;30;20225;-80
2023/01/08 01:42:02;;;;;;;3.87;0.70;;;;;7.70;99723.00;;;;9846951;30;20211;-80
2023/01/08 01:47:24;;;;;;;3.50;1.77;;;;;7.70;99725.00;;;;9861203;30;20610;-79
2023/01/08 01:52:31;;;;;;;1.43;0.70;;;;;7.70;99742.00;;;;9874806;30;20215;-79
2023/01/08 01:57:33;;;;;;;3.03;0.83;;;;;7.80;99752.00;;;;9873948;30;20683;-81
2023/01/08 02:02:35;;;;;;;2.73;1.20;;;;;7.90;99733.00;;;;9845629;30;20210;-80
2023/01/08 02:07:47;;;;;;;1.53;0.90;;;;;8.00;99743.00;;;;9873181;30;20200;-78
2023/01/08 02:12:59;;;;;;;4.83;1.03;;;;;8.00;99735.00;;;;9872487;29;20243;-78
2023/01/08 02:18:13;;;;;;;3.40;0.93;;;;;7.90;99740.00;;;;9873416;30;20235;-77
2023/01/08 02:23:42;;;;;;;7.50;1.07;;;;;7.80;99730.00;;;;9899224;29;20204;-77
2023/01/08 02:28:52;;;;;;;4.23;1.63;;;;;7.80;99742.00;;;;9872410;30;20203;-78
2023/01/08 02:33:54;;;;;;;2.50;1.10;;;;;7.80;99720.00;;;;9869274;30;20192;-77
2023/01/08 02:39:11;;;;;;;6.20;1.50;;;;;7.90;99728.00;;;;9872722;30;20203;-77
2023/01/08 02:44:21;;;;;;;1.90;1.20;;;;;8.00;99738.00;;;;9872627;30;20215;-76
2023/01/08 02:49:29;;;;;;;5.17;1.83;;;;;8.10;99747.00;;;;9872762;30;20223;-78
2023/01/08 02:54:33;;;;;;;4.03;1.53;;;;;8.10;99735.00;;;;9871476;30;20211;-79
2023/01/08 02:59:37;;;;;;;2.27;1.00;;;;;8.20;99735.00;;;;9886944;30;20294;-79
2023/01/08 03:04:45;;;;;;;0.63;0.50;;;;;8.00;99717.00;;;;9863242;30;20211;-78
2023/01/08 03:09:47;;;;;;;1.43;0.63;;;;;7.90;99703.00;;;;9886049;29;20216;-78
2023/01/08 03:14:55;;;;;;;2.70;0.97;;;;;7.80;99689.00;;;;9871292;30;20685;-78
2023/01/08 03:20:06;;;;;;;2.20;0.97;;;;;7.80;99690.00;;;;9857117;30;20219;-77
2023/01/08 03:25:09;;;;;;;2.90;1.07;;;;;7.80;99690.00;;;;9872646;30;20656;-76
2023/01/08 03:30:12;;;;;;;4.57;1.07;;;;;7.80;99698.00;;;;9857023;30;20318;-76
2023/01/08 03:35:19;;;;;;;4.80;1.00;;;;;7.70;99697.00;;;;9856593;30;20212;-77
2023/01/08 03:40:30;;;;;;;1.53;0.80;;;;;7.70;99703.00;;;;9857381;30;20249;-77
2023/01/08 03:45:32;;;;;;;2.83;1.03;;;;;7.60;99713.00;;;;9860541;30;20207;-76
2023/01/08 03:50:34;;;;;;;2.57;0.83;;;;;7.60;99712.00;;;;9863746;30;20204;-76
2023/01/08 03:55:36;;;;;;;6.10;0.87;;;;;7.60;99706.00;;;;9864190;30;20206;-77
2023/01/08 04:00:38;;;;;;;3.27;1.07;;;;;7.50;99697.00;;;;9827620;30;20618;-76
2023/01/08 04:05:40;;;;;;;2.63;0.90;;;;;7.50;99700.00;;;;9851465;30;20599;-77
2023/01/08 04:10:42;;;;;;;5.67;0.93;;;;;7.50;99712.00;;;;9878081;29;20227;-76
2023/01/08 04:15:48;;;;;;;6.13;1.03;;;;;7.40;99692.00;;;;9862964;30;20285;-76
2023/01/08 04:20:50;;;;;;;5.50;0.80;;;;;7.40;99713.00;;;;9862789;30;20200;-77
2023/01/08 04:25:52;;;;;;;4.50;1.30;;;;;7.40;99710.00;;;;9878101;30;20188;-77
2023/01/08 04:30:54;;;;;;;5.80;0.77;;;;;7.40;99705.00;;;;9877972;30;20223;-76
2023/01/08 04:35:56;;;;;;;2.33;1.20;;;;;7.20;99710.00;;;;9877024;30;20234;-76
2023/01/08 04:40:59;;;;;;;7.47;1.10;;;;;7.10;99700.00;;;;9886915;30;20210;-78
2023/01/08 04:46:05;;;;;;;4.03;1.30;;;;;6.90;99694.00;;;;9861293;30;20214;-79
2023/01/08 04:51:07;;;;;;;2.77;0.50;;;;;6.70;99688.00;;;;9861753;30;20295;-79
2023/01/08 04:56:10;;;;;;;6.90;1.10;;;;;6.60;99682.00;;;;9874625;29;20272;-78
2023/01/08 05:01:23;;;;;;;3.37;0.93;;;;;6.50;99688.00;;;;9861009;30;20208;-78
2023/01/08 05:06:27;;;;;;;7.43;1.43;;;;;6.40;99684.00;;;;9890797;30;20187;-78
2023/01/08 05:11:29;;;;;;;9.17;1.87;;;;;6.30;99687.00;;;;9860729;30;20242;-79
2023/01/08 05:16:31;;;;;;;13.07;1.80;;;;;6.20;99684.00;;;;9875080;30;20223;-78
2023/01/08 05:21:33;;;;;;;3.80;1.87;;;;;6.20;99675.00;;;;9845926;30;20228;-78
2023/01/08 05:26:35;;;;;;;10.27;2.43;;;;;6.20;99681.00;;;;9874607;30;20218;-79
2023/01/08 05:31:37;;;;;;;8.63;2.33;;;;;6.30;99670.00;;;;9889605;30;20219;-79
2023/01/08 05:36:39;;;;;;;5.90;2.40;;;;;6.30;99666.00;;;;9874293;30;20215;-78
2023/01/08 05:41:41;;;;;;;11.27;2.27;;;;;6.20;99675.00;;;;9874199;30;20870;-78
2023/01/08 05:46:43;;;;;;;9.67;3.40;;;;;6.10;99667.00;;;;9874009;30;20214;-78
2023/01/08 05:51:45;;;;;;;4.77;2.63;;;;;6.10;99672.00;;;;9888694;30;20235;-78
2023/01/08 05:56:47;;;;;;;5.83;3.10;;;;;6.00;99678.00;;;;9888095;30;20291;-78
2023/01/08 06:01:49;;;;;;;6.10;2.23;;;;;5.90;99682.00;;;;9873168;30;20208;-79
2023/01/08 06:06:51;;;;;;;4.63;1.90;;;;;5.90;99682.00;;;;9843930;30;20284;-78
2023/01/08 06:11:52;;;;;;;4.00;1.93;;;;;5.90;99681.00;;;;9858343;30;20262;-79
2023/01/08 06:16:54;;;;;;;6.50;1.60;;;;;5.90;99667.00;;;;9858840;30;20751;-79
2023/01/08 06:21:56;;;;;;;7.37;1.50;;;;;5.80;99672.00;;;;9867197;29;20253;-79
2023/01/08 06:26:58;;;;;;;5.23;1.70;;;;;5.80;99666.00;;;;9919628;29;20214;-78
2023/01/08 06:32:00;;;;;;;6.47;1.10;;;;;5.80;99657.00;;;;9872241;30;20260;-78
2023/01/08 06:37:02;;;;;;;8.03;1.50;;;;;5.80;99657.00;;;;9843204;30;20251;-78
2023/01/08 06:42:04;;;;;;;3.17;1.17;;;;;5.80;99660.00;;;;9843564;30;20302;-78
2023/01/08 06:47:06;;;;;;;5.80;1.00;;;;;5.80;99654.00;;;;9872165;30;20196;-78
2023/01/08 06:52:08;;;;;;;5.17;1.03;;;;;5.90;99677.00;;;;9872602;30;20218;-78
2023/01/08 06:57:10;;;;;;;11.03;1.67;;;;;6.00;99664.00;;;;9843495;30;20296;-78
2023/01/08 07:02:16;;;;;;;3.87;1.20;;;;;6.20;99658.00;;;;9858355;30;20286;-78
2023/01/08 07:07:18;;;;;;;6.60;1.53;;;;;6.30;99656.00;;;;9888003;30;20716;-78
2023/01/08 07:12:20;;;;;;;6.17;1.53;;;;;6.40;99653.00;;;;9886913;30;20245;-78
2023/01/08 07:17:22;;;;;;;9.23;1.50;;;;;6.40;99647.00;;;;9892760;29;20267;-79
2023/01/08 07:22:24;;;;;;;3.73;1.30;;;;;6.40;99645.00;;;;9867783;30;20257;-79
2023/01/08 07:27:26;;;;;;;6.20;1.50;;;;;6.60;99636.00;;;;9858414;30;20246;-78
2023/01/08 07:32:28;;;;;;;12.43;1.30;;;;;6.60;99644.00;;;;9843232;30;20617;-78
2023/01/08 07:37:30;;;;;;;4.23;1.40;;;;;6.70;99643.00;;;;9843995;30;20240;-78
2023/01/08 07:42:32;;;;;;;7.93;1.57;;;;;6.80;99645.00;;;;9856365;30;20189;-78
2023/01/08 07:47:34;;;;;;;5.43;1.40;;;;;6.80;99645.00;;;;9857850;30;20248;-78
2023/01/08 07:52:36;;;;;;;5.50;1.87;;;;;6.70;99638.00;;;;9842323;30;20232;-76
2023/01/08 07:57:38;;;;;;;4.43;1.47;;;;;6.70;99641.00;;;;9827886;30;20219;-77
2023/01/08 08:02:40;;;;;;;4.20;1.10;;;;;6.60;99644.00;;;;9842384;30;20254;-77
2023/01/08 08:07:42;;;;;;;5.93;1.33;;;;;6.60;99641.00;;;;9878815;30;20216;-77
2023/01/08 08:12:44;;;;;;;7.60;1.20;;;;;6.60;99641.00;;;;9892927;30;20632;-78
2023/01/08 08:17:47;;;;;;;6.43;1.70;;;;;6.70;99638.00;;;;9877681;30;20219;-77
2023/01/08 08:22:49;;;;;;;7.10;1.17;;;;;6.90;99632.00;;;;9877741;30;20638;-77
2023/01/08 08:27:51;;;;;;;6.60;1.20;;;;;6.90;99624.00;;;;9877285;30;20196;-77
2023/01/08 08:32:54;;;;;;;5.93;1.73;;;;;7.00;99612.00;;;;9876728;30;20204;-77
2023/01/08 08:37:56;;;;;;;3.03;1.60;;;;;7.10;99609.00;;;;9872823;30;20219;-77
2023/01/08 08:43:00;;;;;;;6.77;1.50;;;;;7.30;99597.00;;;;9876642;30;20211;-77
2023/01/08 08:48:05;;;;;;;4.90;1.50;;;;;7.30;99594.00;;;;9861744;30;20210;-76
2023/01/08 08:53:07;;;;;;;6.70;1.30;;;;;7.30;99586.00;;;;9891100;30;20196;-76
2023/01/08 08:58:11;;;;;;;4.97;1.40;;;;;7.30;99587.00;;;;9875811;30;20565;-77
2023/01/08 09:03:15;;;;;;;4.20;1.20;;;;;7.40;99593.00;;;;9875702;30;20249;-77
2023/01/08 09:08:17;;;;;;;5.17;1.00;;;;;7.40;99579.00;;;;9872760;30;20180;-77
2023/01/08 09:13:19;;;;;;;3.00;0.87;;;;;7.50;99581.00;;;;9874894;30;20629;-77
2023/01/08 09:18:21;;;;;;;1.50;0.73;;;;;7.60;99578.00;;;;9860531;30;20308;-77
2023/01/08 09:23:22;;;;;;;1.30;0.60;;;;;7.80;99575.00;;;;9861854;29;20292;-77
2023/01/08 09:28:24;;;;;;;1.27;0.70;;;;;7.80;99577.00;;;;9859900;30;20194;-77
2023/01/08 09:33:26;;;;;;;2.73;0.50;;;;;7.70;99573.00;;;;9874762;30;20256;-77
2023/01/08 09:38:28;;;;;;;0.43;0.40;;;;;8.00;99577.00;;;;9889846;30;20260;-77
2023/01/08 09:43:35;;;;;;;0.30;0.30;;;;;8.80;99591.00;;;;9856952;29;20275;-77
2023/01/08 09:48:39;;;;;;;1.60;0.50;;;;;9.30;99596.00;;;;9867094;30;20215;-76
2023/01/08 09:53:42;;;;;;;1.47;0.60;;;;;9.70;99596.00;;;;9889197;30;20224;-77
2023/01/08 09:58:49;;;;;;;0.70;0.50;;;;;10.00;99597.00;;;;9869527;30;20290;-76
2023/01/08 10:04:24;;;;;;;2.33;0.53;;;;;10.30;99587.00;;;;9874605;30;20188;-78
2023/01/08 10:09:29;;;;;;;1.63;0.60;;;;;10.10;99581.00;;;;9851914;30;20341;-77
2023/01/08 10:14:36;;;;;;;2.67;0.50;;;;;10.20;99576.00;;;;9887640;30;20595;-77
2023/01/08 10:19:38;;;;;;;2.27;0.77;;;;;10.50;99578.00;;;;9888599;30;20208;-77
2023/01/08 10:24:40;;;;;;;4.90;1.20;;;;;10.70;99581.00;;;;9884951;30;20242;-76
2023/01/08 10:29:42;;;;;;;1.00;0.70;;;;;11.00;99568.00;;;;9887888;30;20199;-77
2023/01/08 10:34:51;;;;;;;3.40;0.73;;;;;11.00;99557.00;;;;9862830;30;20207;-76
2023/01/08 10:40:01;;;;;;;3.13;1.10;;;;;11.00;99560.00;;;;9861292;30;20226;-77
2023/01/08 10:45:06;;;;;;;2.13;0.80;;;;;11.20;99553.00;;;;9858532;30;20664;-77
2023/01/08 10:50:20;;;;;;;2.33;0.60;;;;;11.20;99545.00;;;;9873316;30;20235;-76
2023/01/08 10:55:26;;;;;;;6.03;1.30;;;;;11.60;99547.00;;;;9851730;29;20258;-77
2023/01/08 11:00:30;;;;;;;5.30;1.00;;;;;11.40;99553.00;;;;9873183;30;20216;-77
2023/01/08 11:05:36;;;;;;;4.07;1.07;;;;;10.90;99540.00;;;;9872402;29;20208;-77
2023/01/08 11:10:38;;;;;;;1.50;1.10;;;;;10.70;99538.00;;;;9854957;29;20726;-77
2023/01/08 11:15:40;;;;;;;7.10;1.03;;;;;11.30;99536.00;;;;9856967;30;20215;-77
2023/01/08 11:20:43;;;;;;;5.10;1.07;;;;;12.10;99548.00;;;;9871628;30;20233;-77
2023/01/08 11:26:23;;;;;;;3.17;1.00;;;;;12.30;99545.00;;;;9857215;30;20204;-77
2023/01/08 11:31:36;;;;;;;2.63;1.20;;;;;12.20;99503.00;;;;9879738;29;20262;-78
2023/01/08 11:36:47;;;;;;;4.83;1.20;;;;;12.10;99527.00;;;;9850813;30;20192;-77
2023/01/08 11:41:55;;;;;;;3.07;1.17;;;;;12.10;99513.00;;;;9846269;30;20204;-77
2023/01/08 11:47:16;;;;;;;5.17;1.00;;;;;11.90;99516.00;;;;9856667;30;20196;-77
2023/01/08 11:52:51;;;;;;;3.60;1.00;;;;;12.30;99507.00;;;;9885516;30;20265;-77
2023/01/08 11:58:14;;;;;;;3.33;1.00;;;;;12.10;99488.00;;;;9869076;29;20243;-78
2023/01/08 12:03:38;;;;;;;3.60;1.07;;;;;12.10;99475.00;;;;9869276;29;20278;-77
2023/01/08 12:08:55;;;;;;;2.10;0.90;;;;;12.10;99477.00;;;;9875237;29;20261;-77
2023/01/08 12:14:22;;;;;;;2.53;1.20;;;;;12.10;99466.00;;;;9877262;30;20618;-76
2023/01/08 12:19:42;;;;;;;2.43;0.90;;;;;12.20;99466.00;;;;9844954;30;20247;-78
2023/01/08 12:25:12;;;;;;;3.80;1.03;;;;;11.70;99480.00;;;;9879570;30;20228;-78
2023/01/08 12:30:42;;;;;;;4.67;1.00;;;;;11.30;99468.00;;;;9874339;30;20806;-77
2023/01/08 12:35:49;;;;;;;3.70;1.00;;;;;11.00;99464.00;;;;9888373;30;20231;-78
2023/01/08 12:40:58;;;;;;;2.70;0.80;;;;;10.90;99453.00;;;;9858724;30;20243;-77
2023/01/08 12:46:02;;;;;;;5.27;1.00;;;;;11.10;99454.00;;;;9860135;30;20204;-77
2023/01/08 12:51:07;;;;;;;4.57;1.10;;;;;10.90;99446.00;;;;9902508;30;20309;-77
2023/01/08 12:56:17;;;;;;;3.27;0.70;;;;;11.10;99432.00;;;;9876326;30;20575;-77
2023/01/08 13:01:37;;;;;;;2.37;0.90;;;;;11.00;99427.00;;;;9880957;30;20231;-77
2023/01/08 13:06:57;;;;;;;4.80;0.90;;;;;10.80;99421.00;;;;9877805;30;20208;-77
2023/01/08 13:12:00;;;;;;;3.30;0.97;;;;;10.70;99412.00;;;;9891871;29;20239;-78
2023/01/08 13:17:06;;;;;;;3.40;1.00;;;;;11.80;99402.00;;;;9854637;29;20223;-79
2023/01/08 13:22:28;;;;;;;2.60;0.90;;;;;11.20;99396.00;;;;9876835;29;20237;-77
2023/01/08 13:27:30;;;;;;;5.30;0.90;;;;;10.70;99388.00;;;;9889571;30;20302;-77
2023/01/08 13:32:46;;;;;;;2.27;1.00;;;;;10.90;99367.00;;;;9860065;30;20298;-77
2023/01/08 13:38:11;;;;;;;5.63;1.23;;;;;11.30;99363.00;;;;9888168;30;20310;-78
2023/01/08 13:43:22;;;;;;;4.50;1.00;;;;;11.00;99338.00;;;;9860178;30;20286;-77
2023/01/08 13:48:37;;;;;;;2.23;0.90;;;;;10.80;99330.00;;;;9857534;30;20204;-77
2023/01/08 13:53:41;;;;;;;6.97;1.10;;;;;11.10;99325.00;;;;9857576;29;20214;-77
2023/01/08 13:58:52;;;;;;;6.07;1.00;;;;;11.20;99316.00;;;;9869927;30;20594;-77
2023/01/08 14:03:54;;;;;;;2.47;1.00;;;;;11.20;99317.00;;;;9873195;30;20663;-77
2023/01/08 14:08:58;;;;;;;2.17;0.70;;;;;10.80;99297.00;;;;9850830;29;20234;-77
2023/01/08 14:14:00;;;;;;;8.10;1.33;;;;;10.40;99289.00;;;;9860747;30;20575;-77
2023/01/08 14:19:03;;;;;;;5.43;1.03;;;;;10.10;99292.00;;;;9853052;30;20215;-77
2023/01/08 14:24:06;;;;;;;2.33;0.87;;;;;10.30;99277.00;;;;9878171;30;20195;-77
2023/01/08 14:29:14;;;;;;;3.33;0.70;;;;;10.60;99273.00;;;;9858060;30;20848;-77
2023/01/08 14:34:18;;;;;;;4.23;1.20;;;;;10.30;99274.00;;;;9853739;30;20211;-77
2023/01/08 14:39:32;;;;;;;4.43;1.00;;;;;10.10;99269.00;;;;9869837;29;20576;-77
2023/01/08 14:44:34;;;;;;;2.47;1.30;;;;;10.10;99254.00;;;;9879290;30;20200;-77
2023/01/08 14:49:43;;;;;;;4.07;1.10;;;;;9.90;99263.00;;;;9894052;30;20210;-76
2023/01/08 14:54:50;;;;;;;4.27;0.90;;;;;10.10;99254.00;;;;9885313;29;20206;-77
2023/01/08 14:59:55;;;;;;;4.27;0.97;;;;;10.10;99247.00;;;;9866114;30;20215;-77
2023/01/08 15:05:30;;;;;;;2.57;1.03;;;;;9.80;99247.00;;;;9891393;29;20199;-77
2023/01/08 15:10:33;;;;;;;6.03;1.07;;;;;9.60;99256.00;;;;9873370;29;20284;-77
2023/01/08 15:15:48;;;;;;;4.40;1.57;;;;;9.50;99255.00;;;;9853297;30;20220;-77
2023/01/08 15:20:50;;;;;;;4.87;1.17;;;;;9.50;99246.00;;;;9856134;29;20867;-77
2023/01/08 15:25:54;;;;;;;6.10;1.20;;;;;9.50;99250.00;;;;9867831;29;20516;-77
2023/01/08 15:30:57;;;;;;;5.30;1.40;;;;;9.50;99232.00;;;;9850410;30;20200;-77
2023/01/08 15:35:59;;;;;;;2.33;0.80;;;;;9.50;99233.00;;;;9867762;30;20226;-77
2023/01/08 15:41:00;;;;;;;4.67;1.00;;;;;9.40;99207.00;;;;9888299;29;20208;-77
2023/01/08 15:46:04;;;;;;;3.77;0.90;;;;;9.40;99195.00;;;;9863024;30;20196;-77
2023/01/08 15:51:08;;;;;;;5.23;1.67;;;;;9.40;99193.00;;;;9861088;30;20196;-78
2023/01/08 15:56:10;;;;;;;4.43;1.23;;;;;9.40;99175.00;;;;9901922;30;20227;-76
2023/01/08 16:01:12;;;;;;;3.77;1.17;;;;;9.30;99175.00;;;;9873410;30;20212;-76
2023/01/08 16:06:14;;;;;;;3.27;1.10;;;;;9.30;99166.00;;;;9872448;30;20200;-76
2023/01/08 16:11:17;;;;;;;6.30;1.40;;;;;9.30;99172.00;;;;9855402;29;20631;-75
2023/01/08 16:16:20;;;;;;;9.43;1.67;;;;;9.20;99155.00;;;;9876854;30;20210;-77
2023/01/08 16:21:22;;;;;;;4.40;1.20;;;;;9.20;99152.00;;;;9883761;29;20212;-77
2023/01/08 16:26:24;;;;;;;5.97;1.10;;;;;9.10;99157.00;;;;9872726;30;20204;-76
2023/01/08 16:31:26;;;;;;;2.03;0.70;;;;;9.10;99148.00;;;;9893751;29;20204;-75
2023/01/08 16:36:28;;;;;;;3.10;1.13;;;;;9.10;99137.00;;;;9863439;30;20192;-76
2023/01/08 16:41:31;;;;;;;4.37;1.10;;;;;8.90;99121.00;;;;9869645;30;20230;-76
2023/01/08 16:46:33;;;;;;;2.60;1.00;;;;;8.80;99116.00;;;;9877669;30;20545;-77
2023/01/08 16:51:34;;;;;;;3.17;1.23;;;;;8.60;99106.00;;;;9885883;29;20567;-77
2023/01/08 16:56:36;;;;;;;3.67;1.10;;;;;8.60;99111.00;;;;9855746;30;20199;-77
2023/01/08 17:01:38;;;;;;;4.50;1.20;;;;;8.50;99104.00;;;;9868027;30;20216;-76
2023/01/08 17:06:40;;;;;;;2.43;1.00;;;;;8.40;99078.00;;;;9870755;30;20195;-77
2023/01/08 17:11:42;;;;;;;4.37;1.20;;;;;8.30;99087.00;;;;9894956;29;20232;-76
2023/01/08 17:16:44;;;;;;;2.63;0.80;;;;;8.40;99078.00;;;;9855081;30;20306;-77
2023/01/08 17:21:49;;;;;;;5.53;1.10;;;;;8.40;99074.00;;;;9867237;29;20563;-76
2023/01/08 17:26:51;;;;;;;4.30;1.13;;;;;8.60;99066.00;;;;9897824;30;20202;-77
2023/01/08 17:31:53;;;;;;;4.70;1.10;;;;;8.60;99060.00;;;;9851107;30;20263;-77
2023/01/08 17:36:55;;;;;;;7.00;1.40;;;;;8.60;99054.00;;;;9886179;30;20287;-77
2023/01/08 17:47:19;;;;;;;5.10;1.23;;;;;8.80;99038.00;;;;9881542;30;20291;-77
2023/01/08 17:52:23;;;;;;;8.80;1.50;;;;;8.80;99025.00;;;;9859434;30;20191;-77
2023/01/08 17:57:25;;;;;;;5.75;1.10;;;;;8.80;99016.00;;;;9857420;29;20249;-77
2023/01/08 18:02:27;;;;;;;6.73;1.40;;;;;8.80;99011.00;;;;9871346;29;20445;-76
2023/01/08 18:07:33;;;;;;;3.43;1.00;;;;;8.70;99009.00;;;;9849458;30;20233;-76
2023/01/08 18:12:34;;;;;;;4.87;1.73;;;;;8.70;99002.00;;;;9879386;30;20296;-76
2023/01/08 18:17:38;;;;;;;4.60;1.50;;;;;8.50;99003.00;;;;9867402;30;20239;-76
2023/01/08 18:22:41;;;;;;;6.30;1.30;;;;;8.30;99004.00;;;;9889718;30;20629;-76
2023/01/08 18:27:43;;;;;;;2.90;1.33;;;;;8.30;98997.00;;;;9882990;30;20235;-76
2023/01/08 18:32:45;;;;;;;2.70;1.37;;;;;8.20;98989.00;;;;9870403;30;20218;-76
2023/01/08 18:37:47;;;;;;;7.00;1.20;;;;;8.20;98986.00;;;;9847105;30;20664;-76
2023/01/08 18:42:49;;;;;;;5.73;1.60;;;;;8.40;98983.00;;;;9833557;30;20215;-76
2023/01/08 18:47:52;;;;;;;2.83;1.20;;;;;8.50;98970.00;;;;9873850;29;20206;-76
2023/01/08 18:52:54;;;;;;;5.77;1.30;;;;;8.60;98964.00;;;;9884781;30;20222;-76
2023/01/08 18:57:56;;;;;;;2.77;1.40;;;;;8.60;98963.00;;;;9848415;30;20219;-77
2023/01/08 19:02:58;;;;;;;7.90;1.37;;;;;8.70;98965.00;;;;9845103;30;20216;-77
2023/01/08 19:08:00;;;;;;;3.97;1.37;;;;;8.70;98955.00;;;;9885880;29;20196;-76
2023/01/08 19:13:03;;;;;;;3.37;0.90;;;;;8.70;98946.00;;;;9849205;30;20654;-76
2023/01/08 19:18:07;;;;;;;5.47;1.43;;;;;8.70;98949.00;;;;9864309;30;20219;-77
2023/01/08 19:23:09;;;;;;;4.97;1.30;;;;;8.50;98937.00;;;;9856269;30;20211;-76
2023/01/08 19:28:11;;;;;;;3.23;0.90;;;;;8.40;98914.00;;;;9858400;30;20260;-76
2023/01/08 19:33:15;;;;;;;3.10;1.33;;;;;8.30;98905.00;;;;9865097;30;20208;-77
2023/01/08 19:38:17;;;;;;;3.37;1.03;;;;;8.20;98899.00;;;;9876522;30;20243;-76
2023/01/08 19:48:42;;;;;;;3.97;1.13;;;;;8.20;98881.00;;;;9899246;30;20295;-77
2023/01/08 19:53:44;;;;;;;1.50;0.93;;;;;8.20;98872.00;;;;9872657;30;20553;-77
2023/01/08 19:58:46;;;;;;;3.63;1.10;;;;;8.30;98869.00;;;;9899095;29;20219;-77
2023/01/08 20:03:49;;;;;;;2.10;1.27;;;;;8.40;98866.00;;;;9855409;30;20212;-77
2023/01/08 20:08:54;;;;;;;2.83;1.10;;;;;8.40;98849.00;;;;9882153;30;20228;-76
2023/01/08 20:14:01;;;;;;;6.57;1.50;;;;;8.50;98852.00;;;;9858203;30;20615;-76
2023/01/08 20:19:03;;;;;;;1.50;1.10;;;;;8.50;98847.00;;;;9863890;30;20220;-75
2023/01/08 20:24:09;;;;;;;2.00;1.20;;;;;8.60;98839.00;;;;9864884;29;20204;-76
2023/01/08 20:29:14;;;;;;;2.30;1.10;;;;;8.60;98843.00;;;;9857857;30;20664;-76
2023/01/08 20:34:16;;;;;;;4.83;1.30;;;;;8.60;98841.00;;;;9862458;30;20690;-76
2023/01/08 20:39:18;;;;;;;3.67;1.17;;;;;8.70;98841.00;;;;9867325;29;20220;-76
2023/01/08 20:44:20;;;;;;;4.37;1.20;;;;;8.70;98847.00;;;;9886624;30;20235;-77
2023/01/08 20:49:24;;;;;;;3.30;1.40;;;;;8.60;98853.00;;;;9879293;30;20208;-75
2023/01/08 20:54:28;;;;;;;4.47;1.00;;;;;8.40;98833.00;;;;9908955;29;20206;-76
2023/01/08 20:59:30;;;;;;;3.07;1.23;;;;;8.40;98828.00;;;;9898641;30;20208;-75
2023/01/08 21:04:32;;;;;;;2.67;1.00;;;;;8.30;98825.00;;;;9870344;30;20277;-75
2023/01/08 21:09:34;;;;;;;2.30;0.80;;;;;8.30;98816.00;;;;9901007;29;20227;-75
2023/01/08 21:14:38;;;;;;;7.77;1.83;;;;;8.20;98817.00;;;;9885806;29;20231;-75
2023/01/08 21:19:40;;;;;;;2.03;0.93;;;;;8.20;98824.00;;;;9881322;30;20230;-75
2023/01/08 21:24:41;;;;;;;2.87;0.53;;;;;8.00;98872.00;;;;9866362;30;20277;-76
2023/01/08 21:29:43;;;;;;;1.10;0.63;;;;;7.40;98866.00;;;;9887485;29;20195;-77
2023/01/08 21:34:45;;;;;;;1.10;0.40;;;;;7.00;98876.00;;;;9869613;30;20212;-77
2023/01/08 21:39:47;;;;;;;0.73;0.50;;;;;6.80;98878.00;;;;9882881;30;20212;-77
2023/01/08 21:50:10;;;;;;;1.10;0.30;;;;;6.60;98868.00;;;;9894122;29;20199;-78
2023/01/08 21:55:15;;;;;;;0.30;0.30;;;;;6.50;98857.00;;;;9888425;29;20230;-77
2023/01/08 22:00:18;;;;;;;0.33;0.33;;;;;6.40;98864.00;;;;9854517;30;20216;-77
2023/01/08 22:05:20;;;;;;;0.83;0.30;;;;;6.30;98860.00;;;;9834324;30;20903;-77
2023/01/08 22:10:22;;;;;;;1.80;0.40;;;;;6.30;98858.00;;;;9876815;29;20746;-77
2023/01/08 22:15:24;;;;;;;0.20;0.20;;;;;6.30;98862.00;;;;9854554;30;20222;-78
2023/01/08 22:20:26;;;;;;;1.40;0.50;;;;;6.30;98866.00;;;;9901954;29;20762;-77
2023/01/08 22:25:29;;;;;;;0.60;0.60;;;;;6.30;98866.00;;;;9883673;30;20203;-77
2023/01/08 22:30:31;;;;;;;0.67;0.53;;;;;6.30;98877.00;;;;9870379;29;20199;-77
2023/01/08 22:35:36;;;;;;;1.17;0.20;;;;;6.30;98858.00;;;;9873484;30;20206;-77
2023/01/08 22:40:38;;;;;;;1.30;0.53;;;;;6.30;98869.00;;;;9849515;30;20211;-77
2023/01/08 22:45:40;;;;;;;0.70;0.43;;;;;6.30;98879.00;;;;9852280;30;20287;-77
2023/01/08 22:50:42;;;;;;;0.40;0.40;;;;;6.20;98891.00;;;;9869913;29;20200;-77
2023/01/08 22:55:45;;;;;;;0.50;0.40;;;;;6.20;98897.00;;;;9898761;30;21131;-78
2023/01/08 23:00:47;;;;;;;0.73;0.43;;;;;6.10;98915.00;;;;9866822;30;20207;-77
2023/01/08 23:05:59;;;;;;;2.17;0.67;;;;;6.10;98912.00;;;;9884494;29;20204;-77
2023/01/08 23:11:02;;;;;;;0.93;0.70;;;;;6.10;98920.00;;;;9880195;29;20243;-77
2023/01/08 23:16:05;;;;;;;1.00;0.40;;;;;6.00;98924.00;;;;9893570;30;20783;-78
2023/01/08 23:21:10;;;;;;;0.53;0.50;;;;;6.00;98924.00;;;;9868103;29;20219;-77
2023/01/08 23:26:17;;;;;;;1.83;0.47;;;;;6.00;98919.00;;;;9884689;29;20211;-77
2023/01/08 23:31:26;;;;;;;1.00;0.70;;;;;6.00;98918.00;;;;9889485;29;20227;-77
2023/01/08 23:36:28;;;;;;;0.57;0.50;;;;;6.00;98922.00;;;;9871217;30;20256;-77
2023/01/08 23:41:30;;;;;;;1.30;0.60;;;;;5.90;98927.00;;;;9864255;30;20219;-77
2023/01/08 23:46:36;;;;;;;2.23;0.53;;;;;5.90;98922.00;;;;9883327;30;20206;-77
2023/01/08 23:51:41;;;;;;;0.83;0.60;;;;;5.90;98929.00;;;;9857600;30;20533;-77
2023/01/08 23:56:42;;;;;;;1.50;0.80;;;;;5.90;98934.00;;;;9881508;30;20203;-76
